Historique des mesures à Cassis (13260), France
Quotidien Résumé Mars 12, 2017 Unités:  Métrique    US   Métrique/US
« Précédent (Jour)
Suivant (Jour) »
Quotidien Hebdomadaire Mensuel Annuel Période au choix
  Maximum: Minimum: Moyenne:
Température: TemperatureC °C 10.6 °C 11.8 °C
Point de rosée: DewpointC °C 6.2 °C 7.6 °C
Humidité: Humidity % 68 % 71 %
Vitesse du vent: 0 km/h 0 km/h 1.6 km/h
Rafales: 0 km/h - -
Vent:- - WSW
Pression: PressurehPa hPa 1009.7 hPa -
Précipitations: 0.0 mm    
Historical Graphs
 
 
Mesures pour : Mars 12, 2017
Heure Temperature Point de rosée Pression Vent Vitesse du vent Rafales Humidité Pluie (par heure) Conditions
TemperatureC °C DewpointC °C PressurehPa hPa Calm     Humidity % HourlyPrecipMM mm SoftwareType W/m2
00:11 11.5 °C 6.2 °C 1013.8 hPa NNW 2.9 km/h 2.9 km/h 70 % 0.0 mm open2300-1.11 W/m2
01:10 11.3 °C 6.4 °C 1013.4 hPa Calm     72 % 0.0 mm open2300-1.11 W/m2
02:11 10.9 °C 6.3 °C 1013.4 hPa Calm   3.4 km/h 73 % 0.0 mm open2300-1.11 W/m2
03:10 10.9 °C 6.4 °C 1012.4 hPa Calm     74 % 0.0 mm open2300-1.11 W/m2
04:11 11.0 °C 6.8 °C 1012.1 hPa WNW 3.4 km/h 3.4 km/h 75 % 0.0 mm open2300-1.11 W/m2
05:10 10.9 °C 7.1 °C 1011.7 hPa Calm   6.4 km/h 77 % 0.0 mm open2300-1.11 W/m2
06:11 10.6 °C 6.9 °C 1011.7 hPa Calm   3.4 km/h 78 % 0.0 mm open2300-1.11 W/m2
07:10 10.8 °C 6.9 °C 1011.7 hPa NNW 2.3 km/h 2.3 km/h 77 % 0.0 mm open2300-1.11 W/m2
08:11 11.1 °C 7.2 °C 1011.7 hPa Calm     77 % 0.0 mm open2300-1.11 W/m2
09:10 12.4 °C 8.4 °C 1011.7 hPa Calm     77 % 0.0 mm open2300-1.11 W/m2
10:11 13.6 °C 8.8 °C 1011.1 hPa NNE 9.3 km/h 9.3 km/h 73 % 0.0 mm open2300-1.11 W/m2
11:10 13.8 °C 7.9 °C 1011.1 hPa Calm     68 % 0.0 mm open2300-1.11 W/m2
12:11 14.1 °C 8.9 °C 1011.7 hPa West 3.4 km/h 8 km/h 71 % 0.0 mm open2300-1.11 W/m2
13:10 14.3 °C 9.5 °C 1011.1 hPa Calm     73 % 0.0 mm open2300-1.11 W/m2
14:11 14.4 °C 10.2 °C 1010.4 hPa SSE 2.9 km/h 2.9 km/h 76 % 0.0 mm open2300-1.11 W/m2
15:10 15.2 °C 10.6 °C 1009.7 hPa SSW 6.4 km/h 6.4 km/h 74 % 0.0 mm open2300-1.11 W/m2
19:10 13.8 °C 9.4 °C 1009.7 hPa Calm     75 % 0.0 mm open2300-1.11 W/m2
20:11 13.1 °C 8.9 °C 1010.0 hPa Calm     76 % 0.0 mm open2300-1.11 W/m2
21:10 12.9 °C 8.7 °C 1010.4 hPa Calm     76 % 0.0 mm open2300-1.11 W/m2
22:11 12.1 °C 8.2 °C 1010.4 hPa Calm     77 % 0.0 mm open2300-1.11 W/m2
23:10 11.5 °C 7.8 °C 1010.4 hPa NW 5.1 km/h 6.9 km/h 78 % 0.0 mm open2300-1.11 W/m2
Observations météo à CASSIS
WU-History script by Weather Underground - 1 mb